Kolyvan, Russia
Current Conditions -  °F | °C
As of 7:30 AM on Thursday 23 Oct 2014 (Local Time) from UNNT Reporting Station
Clear Clear  
Wind Chill: 30°   Ceiling: Unl
Heat Index: 36°   Visibility: 6mi
Dew Point: 32°   Wind: 7mph
Humidity: 87%   Direction: 220°SW
Pressure: 29.94"   Gusts: NA
Location:  55.31°N, 82.74°E
Report Text: UNNT 230030Z 22003MPS CAVOK 02/M00 Q1014 25150065 16690150NOSIG RMK QFE750/1001
Loading
Personal Weather Stations






























Interactive Weather Map
Tropical Storm Tracking
New forecast layout! Learn more

10-Day Weather Forecast

Advertisements
Track Severe Weather on mobile